Time;durP1;ratioP1;P1;durP2;ratioP2;P2;SDS_P1;SDS_P2;PMS_P1;PMS_P2;Temp;Humidity;BMP_temperature;BMP_pressure;BME280_temperature;BME280_humidity;BME280_pressure;Samples;Min_cycle;Max_cycle;Signal;HPM_P1;HPM_P2
2021/09/26 00:01:39;;;;;;;3.40;2.37;;;25.90;99.90;;;;;;4983413;28;20266;-94
2021/09/26 00:04:10;;;;;;;2.70;2.30;;;26.00;99.90;;;;;;4986161;28;20230;-95
2021/09/26 00:09:28;;;;;;;7.73;2.53;;;25.50;99.90;;;;;;4980173;28;20218;-95
2021/09/26 00:12:00;;;;;;;3.77;2.30;;;25.40;99.90;;;;;;4977521;28;20214;-93
2021/09/26 00:14:32;;;;;;;2.30;2.10;;;25.30;99.90;;;;;;4977825;28;20230;-94
2021/09/26 00:17:03;;;;;;;3.77;2.30;;;24.90;99.90;;;;;;4978419;28;20207;-94
2021/09/26 00:19:35;;;;;;;4.20;2.60;;;24.70;99.90;;;;;;4978293;28;20203;-94
2021/09/26 00:22:07;;;;;;;2.53;2.33;;;24.70;99.90;;;;;;4977890;28;20217;-94
2021/09/26 00:24:40;;;;;;;3.60;2.50;;;24.50;99.90;;;;;;4977711;28;20299;-94
2021/09/26 00:27:12;;;;;;;3.50;2.20;;;24.40;99.90;;;;;;4978821;28;20222;-94
2021/09/26 00:29:43;;;;;;;2.73;2.10;;;24.20;99.90;;;;;;4978617;28;20265;-95
2021/09/26 00:32:15;;;;;;;4.43;2.33;;;24.10;99.90;;;;;;4978011;28;20310;-96
2021/09/26 00:34:47;;;;;;;4.97;2.30;;;24.00;99.90;;;;;;4979745;28;20203;-95
2021/09/26 00:37:19;;;;;;;5.67;2.60;;;24.00;99.90;;;;;;4978703;28;20235;-95
2021/09/26 00:39:53;;;;;;;3.77;2.20;;;24.00;99.90;;;;;;4978017;28;20629;-95
2021/09/26 00:42:24;;;;;;;4.23;2.50;;;23.90;99.90;;;;;;4978073;28;20207;-96
2021/09/26 00:44:57;;;;;;;6.37;3.00;;;23.80;99.90;;;;;;4978376;28;20238;-95
2021/09/26 00:47:39;;;;;;;6.47;3.70;;;23.70;99.90;;;;;;4979205;28;20235;-95
2021/09/26 00:50:12;;;;;;;3.07;2.27;;;23.60;99.90;;;;;;4977973;28;20205;-94
2021/09/26 00:52:45;;;;;;;4.33;2.57;;;23.50;99.90;;;;;;4978386;28;20214;-95
2021/09/26 00:55:19;;;;;;;2.70;2.30;;;23.50;99.90;;;;;;4979771;28;20265;-95
2021/09/26 00:57:51;;;;;;;4.33;2.33;;;23.40;99.90;;;;;;4974954;28;20250;-95
2021/09/26 01:00:23;;;;;;;2.90;2.67;;;23.30;99.90;;;;;;4977733;28;20220;-95
2021/09/26 01:02:56;;;;;;;4.90;2.50;;;23.30;99.90;;;;;;4974558;28;20254;-96
2021/09/26 01:05:30;;;;;;;4.10;2.60;;;23.40;99.90;;;;;;4975478;28;20204;-95
2021/09/26 01:08:12;;;;;;;3.20;2.50;;;23.40;99.90;;;;;;4979420;28;20234;-95
2021/09/26 01:10:57;;;;;;;4.70;2.90;;;23.50;99.90;;;;;;4986982;28;20206;-92
2021/09/26 01:13:47;;;;;;;4.97;2.90;;;23.40;99.90;;;;;;4996576;28;20262;-95
2021/09/26 01:16:29;;;;;;;3.87;2.70;;;23.30;99.90;;;;;;4996479;28;20237;-95
2021/09/26 01:19:14;;;;;;;5.10;2.97;;;23.30;99.90;;;;;;4989883;28;20211;-95
2021/09/26 01:21:53;;;;;;;5.47;2.90;;;23.20;99.90;;;;;;4990800;28;20246;-95
2021/09/26 01:24:58;;;;;;;2.90;2.70;;;23.10;99.90;;;;;;4988040;28;20214;-93
2021/09/26 01:27:57;;;;;;;5.30;3.23;;;23.00;99.90;;;;;;4990045;28;20206;-94
2021/09/26 01:30:39;;;;;;;5.70;3.20;;;22.90;99.90;;;;;;4990930;28;20222;-93
2021/09/26 01:33:20;;;;;;;4.37;3.00;;;22.80;99.90;;;;;;4973507;28;20219;-93
2021/09/26 01:35:59;;;;;;;4.63;2.90;;;22.70;99.90;;;;;;4983704;28;20231;-93
2021/09/26 01:38:39;;;;;;;3.63;3.33;;;22.70;99.90;;;;;;4995784;28;20213;-93
2021/09/26 01:41:21;;;;;;;4.37;2.97;;;22.60;99.90;;;;;;4991822;28;20416;-94
2021/09/26 01:43:55;;;;;;;3.20;2.90;;;22.40;99.90;;;;;;4981116;28;20207;-93
2021/09/26 01:46:33;;;;;;;6.53;3.00;;;22.30;99.90;;;;;;4961972;28;20287;-93
2021/09/26 01:49:11;;;;;;;5.23;3.73;;;22.20;99.90;;;;;;4978212;28;20206;-92
2021/09/26 01:51:45;;;;;;;4.37;3.50;;;22.10;99.90;;;;;;4976576;28;20253;-94
2021/09/26 01:54:20;;;;;;;6.53;3.50;;;21.90;99.90;;;;;;4976955;28;20206;-95
2021/09/26 01:56:54;;;;;;;6.27;3.40;;;21.70;99.90;;;;;;4985949;28;20206;-94
2021/09/26 01:59:28;;;;;;;5.03;3.33;;;21.40;99.90;;;;;;4985963;28;20194;-94
2021/09/26 02:02:02;;;;;;;5.03;3.90;;;21.20;99.90;;;;;;4985382;28;20254;-94
2021/09/26 02:04:37;;;;;;;4.30;3.20;;;21.00;99.90;;;;;;4988311;28;20250;-94
2021/09/26 02:07:10;;;;;;;6.20;3.40;;;20.80;99.90;;;;;;4994299;28;20234;-93
2021/09/26 02:20:33;;;;;;;5.27;3.30;;;21.00;99.90;;;;;;4652254;26;10001267;-91
2021/09/26 02:23:04;;;;;;;4.10;2.90;;;21.00;99.90;;;;;;4993214;28;20213;-92
2021/09/26 02:25:39;;;;;;;5.73;2.83;;;21.00;99.90;;;;;;4986162;28;20219;-92
2021/09/26 02:28:11;;;;;;;4.30;2.77;;;21.00;99.90;;;;;;4998727;28;20222;-92
2021/09/26 02:30:43;;;;;;;5.53;2.40;;;20.90;99.90;;;;;;4998012;28;20283;-92
2021/09/26 02:33:16;;;;;;;4.10;2.57;;;20.90;99.90;;;;;;4992913;28;20219;-92
2021/09/26 02:35:50;;;;;;;3.63;2.17;;;20.90;99.90;;;;;;5000956;28;20199;-92
2021/09/26 02:38:22;;;;;;;6.00;2.13;;;20.80;99.90;;;;;;4999746;28;20195;-92
2021/09/26 02:43:42;;;;;;;2.00;1.80;;;20.80;99.90;;;;;;5031399;23;20490;-92
2021/09/26 02:46:19;;;;;;;2.43;1.80;;;20.70;99.90;;;;;;4999138;28;20234;-94
2021/09/26 02:48:53;;;;;;;3.33;1.93;;;20.70;99.90;;;;;;4999377;28;20219;-94
2021/09/26 02:51:29;;;;;;;4.27;2.20;;;20.60;99.90;;;;;;4993036;28;20259;-92
2021/09/26 02:54:03;;;;;;;4.00;2.20;;;20.60;99.90;;;;;;5004064;28;20230;-93
2021/09/26 02:56:36;;;;;;;4.97;2.50;;;20.50;99.90;;;;;;5002019;28;20257;-91
2021/09/26 02:59:10;;;;;;;3.70;2.20;;;20.40;99.90;;;;;;4982146;28;20253;-93
2021/09/26 03:01:52;;;;;;;14.13;5.40;;;20.30;99.90;;;;;;4990462;28;20412;-94
2021/09/26 03:04:25;;;;;;;6.67;3.27;;;20.20;99.90;;;;;;4991918;28;20214;-93
2021/09/26 03:07:01;;;;;;;7.80;3.67;;;20.10;99.90;;;;;;4993324;28;20552;-93
2021/09/26 03:09:33;;;;;;;2.87;2.30;;;20.00;99.90;;;;;;4992342;28;20202;-91
2021/09/26 03:12:13;;;;;;;9.63;5.77;;;19.90;99.90;;;;;;4992143;28;20210;-92
2021/09/26 03:14:48;;;;;;;3.53;2.73;;;19.90;99.90;;;;;;4994263;28;20207;-93
2021/09/26 03:17:20;;;;;;;3.97;2.60;;;19.80;99.90;;;;;;4996184;28;20207;-92
2021/09/26 03:19:53;;;;;;;5.70;2.80;;;19.80;99.90;;;;;;5000414;28;20202;-92
2021/09/26 03:22:28;;;;;;;4.03;2.77;;;19.70;99.90;;;;;;4998335;28;20226;-92
2021/09/26 03:25:01;;;;;;;6.77;3.33;;;19.60;99.90;;;;;;5001788;28;20227;-93
2021/09/26 03:27:35;;;;;;;6.00;3.43;;;19.50;99.90;;;;;;4992924;28;20223;-94
2021/09/26 03:30:11;;;;;;;7.10;3.47;;;19.50;99.90;;;;;;5000854;28;20250;-93
2021/09/26 03:35:29;;;;;;;6.97;3.53;;;19.40;99.90;;;;;;4978223;28;20195;-93
2021/09/26 03:38:03;;;;;;;7.07;2.60;;;19.30;99.90;;;;;;4991573;28;20234;-93
2021/09/26 03:40:37;;;;;;;5.30;2.40;;;19.20;99.90;;;;;;4979727;28;20217;-93
2021/09/26 03:43:09;;;;;;;4.27;2.60;;;19.20;99.90;;;;;;4990624;28;20229;-93
2021/09/26 03:45:41;;;;;;;5.50;2.50;;;19.10;99.90;;;;;;4973881;28;20247;-92
2021/09/26 03:58:49;;;;;;;3.43;2.30;;;18.80;99.90;;;;;;4970379;29;20242;-92
2021/09/26 04:04:08;;;;;;;7.73;3.10;;;18.70;99.90;;;;;;4970005;29;20203;-96
2021/09/26 04:06:40;;;;;;;5.53;2.30;;;18.60;99.90;;;;;;4975619;28;20283;-93
2021/09/26 04:11:59;;;;;;;3.40;2.50;;;18.70;99.90;;;;;;4974000;29;20200;-91
2021/09/26 04:14:33;;;;;;;5.03;1.97;;;18.70;99.90;;;;;;4974422;28;20218;-92
2021/09/26 04:17:05;;;;;;;3.50;2.00;;;18.70;99.90;;;;;;4974085;28;20212;-93
2021/09/26 04:19:39;;;;;;;3.20;1.70;;;18.60;99.90;;;;;;4977127;29;20201;-93
2021/09/26 04:22:14;;;;;;;5.33;2.10;;;18.60;99.90;;;;;;4977372;28;20243;-91
2021/09/26 04:24:47;;;;;;;3.43;2.07;;;18.60;99.90;;;;;;4977549;28;20734;-93
2021/09/26 04:27:31;;;;;;;5.87;2.30;;;18.50;99.90;;;;;;4975220;28;20224;-93
2021/09/26 04:30:11;;;;;;;3.33;2.07;;;18.50;99.90;;;;;;4977385;28;20219;-92
2021/09/26 04:32:45;;;;;;;3.57;2.10;;;18.40;99.90;;;;;;4959895;29;20196;-93
2021/09/26 04:35:17;;;;;;;4.13;2.13;;;18.40;99.90;;;;;;4970795;28;20207;-93
2021/09/26 04:37:50;;;;;;;4.27;1.80;;;18.30;99.90;;;;;;4975493;28;20192;-93
2021/09/26 04:40:22;;;;;;;3.83;1.90;;;18.30;99.90;;;;;;4974811;28;20207;-93
2021/09/26 04:42:55;;;;;;;2.90;1.70;;;18.30;99.90;;;;;;4974151;28;20247;-92
2021/09/26 04:45:30;;;;;;;4.20;1.97;;;18.30;99.90;;;;;;4977336;28;20296;-93
2021/09/26 04:48:04;;;;;;;4.93;1.93;;;18.20;99.90;;;;;;4977384;28;20236;-93
2021/09/26 04:53:18;;;;;;;5.27;1.73;;;18.20;99.90;;;;;;5087955;23;20253;-93
2021/09/26 04:55:52;;;;;;;3.33;1.67;;;18.10;99.90;;;;;;4998545;28;20221;-93
2021/09/26 04:58:28;;;;;;;3.50;1.73;;;18.10;99.90;;;;;;4993308;28;20210;-93
2021/09/26 05:01:01;;;;;;;3.33;1.60;;;18.10;99.90;;;;;;4991557;28;20261;-93
2021/09/26 05:06:14;;;;;;;3.50;1.90;;;18.00;99.90;;;;;;4974278;28;20250;-90
2021/09/26 05:11:42;;;;;;;4.87;1.60;;;17.90;99.90;;;;;;4973195;29;20239;-92
2021/09/26 05:14:13;;;;;;;3.23;1.43;;;17.90;99.90;;;;;;4966376;29;20275;-91
2021/09/26 05:16:48;;;;;;;3.17;1.70;;;17.80;99.90;;;;;;4961098;29;20208;-92
2021/09/26 05:19:19;;;;;;;4.80;1.90;;;17.80;99.90;;;;;;4947380;29;20603;-92
2021/09/26 05:21:52;;;;;;;1.50;1.33;;;17.70;99.90;;;;;;4958578;29;20270;-91
2021/09/26 05:24:23;;;;;;;3.57;1.67;;;17.70;99.90;;;;;;4968535;29;20200;-92
2021/09/26 05:26:54;;;;;;;3.03;1.70;;;17.60;99.90;;;;;;4974741;28;20566;-92
2021/09/26 05:31:56;;;;;;;3.90;2.10;;;17.60;99.90;;;;;;4976839;28;20211;-94
2021/09/26 05:34:29;;;;;;;3.13;1.60;;;17.50;99.90;;;;;;4960112;29;20211;-93
2021/09/26 05:37:02;;;;;;;2.67;1.70;;;17.50;99.90;;;;;;4975652;28;20200;-94
2021/09/26 05:39:33;;;;;;;3.93;2.00;;;17.40;99.90;;;;;;4980094;28;20219;-92
2021/09/26 05:42:07;;;;;;;4.73;2.00;;;17.40;99.90;;;;;;4980106;28;20219;-94
2021/09/26 05:44:40;;;;;;;4.97;1.93;;;17.40;99.90;;;;;;4978253;29;20288;-93
2021/09/26 05:52:33;;;;;;;3.97;2.00;;;17.30;99.90;;;;;;5293189;23;20241;-92
2021/09/26 05:55:07;;;;;;;4.23;1.60;;;17.30;99.90;;;;;;4982957;28;20358;-92
2021/09/26 06:00:24;;;;;;;3.17;1.40;;;17.30;99.90;;;;;;4979834;28;20237;-92
2021/09/26 06:02:58;;;;;;;3.27;1.50;;;17.20;99.90;;;;;;4979531;28;20723;-92
2021/09/26 06:05:30;;;;;;;4.70;1.50;;;17.20;99.90;;;;;;4963381;28;20213;-92
2021/09/26 06:08:03;;;;;;;1.93;1.30;;;17.20;99.90;;;;;;4981721;28;20237;-92
2021/09/26 06:10:35;;;;;;;3.33;1.50;;;17.10;99.90;;;;;;4984898;28;20212;-93
2021/09/26 06:13:07;;;;;;;3.27;1.40;;;17.00;99.90;;;;;;4974987;28;20253;-93
2021/09/26 06:15:38;;;;;;;2.73;1.43;;;17.00;99.90;;;;;;4975484;28;20202;-92
2021/09/26 06:18:12;;;;;;;2.13;1.30;;;16.90;99.90;;;;;;4962351;28;20207;-93
2021/09/26 06:20:51;;;;;;;2.97;1.40;;;16.80;99.90;;;;;;4962644;28;20285;-93
2021/09/26 06:23:30;;;;;;;1.83;1.43;;;16.70;99.90;;;;;;4979865;28;20234;-93
2021/09/26 06:26:02;;;;;;;3.20;1.10;;;16.50;99.90;;;;;;4980314;28;20219;-93
2021/09/26 06:28:47;;;;;;;3.03;1.30;;;16.40;99.90;;;;;;4981260;28;20566;-93
2021/09/26 06:31:18;;;;;;;2.47;1.67;;;16.30;99.90;;;;;;4982390;28;20206;-93
2021/09/26 06:33:52;;;;;;;3.47;1.40;;;16.40;99.90;;;;;;4968654;28;20208;-94
2021/09/26 06:36:24;;;;;;;2.40;1.40;;;16.20;99.90;;;;;;4963142;28;20208;-94
2021/09/26 06:38:55;;;;;;;4.77;2.00;;;16.20;99.90;;;;;;4964987;28;20234;-93
2021/09/26 06:41:35;;;;;;;3.80;1.80;;;16.10;99.90;;;;;;4988070;23;20220;-92
2021/09/26 06:44:07;;;;;;;4.00;1.57;;;16.00;99.90;;;;;;4980099;28;20713;-94
2021/09/26 06:46:40;;;;;;;3.83;1.70;;;15.90;99.90;;;;;;4980442;28;20249;-93
2021/09/26 06:49:14;;;;;;;2.43;1.50;;;15.80;99.90;;;;;;4978872;28;20630;-93
2021/09/26 06:51:49;;;;;;;3.93;1.47;;;15.70;99.90;;;;;;4983593;28;20221;-92
2021/09/26 06:54:20;;;;;;;3.53;1.60;;;15.70;99.90;;;;;;4979247;28;20252;-93
2021/09/26 06:56:53;;;;;;;2.33;1.57;;;15.60;99.90;;;;;;4979450;28;20616;-93
2021/09/26 06:59:24;;;;;;;5.77;2.00;;;15.60;99.90;;;;;;4961097;28;20226;-93
2021/09/26 07:01:56;;;;;;;3.93;1.70;;;15.60;99.90;;;;;;4972831;28;20224;-93
2021/09/26 07:04:31;;;;;;;2.90;1.90;;;15.50;99.90;;;;;;4978915;28;20717;-93
2021/09/26 07:07:03;;;;;;;3.57;1.50;;;15.40;99.90;;;;;;4964196;28;20222;-93
2021/09/26 07:09:35;;;;;;;4.07;1.93;;;15.40;99.90;;;;;;4988321;28;20206;-93
2021/09/26 07:12:07;;;;;;;3.80;1.60;;;15.40;99.90;;;;;;4991785;28;20219;-93
2021/09/26 07:14:38;;;;;;;3.57;1.60;;;15.30;99.90;;;;;;4979036;28;20204;-93
2021/09/26 07:17:10;;;;;;;2.90;1.70;;;15.30;99.90;;;;;;4972086;28;20246;-93
2021/09/26 07:19:44;;;;;;;4.10;2.10;;;15.20;99.90;;;;;;4976891;28;20282;-92
2021/09/26 07:22:23;;;;;;;3.60;1.97;;;15.20;99.90;;;;;;4980545;28;20476;-94
2021/09/26 07:24:55;;;;;;;3.53;2.10;;;15.10;99.90;;;;;;4977751;28;20230;-93
2021/09/26 07:27:27;;;;;;;3.93;2.20;;;14.90;99.90;;;;;;4979488;28;20207;-93
2021/09/26 07:30:02;;;;;;;6.30;2.23;;;14.90;99.90;;;;;;4979542;28;20245;-92
2021/09/26 07:32:33;;;;;;;9.50;2.20;;;14.80;99.90;;;;;;4978740;28;20214;-93
2021/09/26 07:35:08;;;;;;;5.50;2.30;;;14.80;99.90;;;;;;4979242;28;20199;-93
2021/09/26 07:37:42;;;;;;;3.97;1.70;;;14.80;99.90;;;;;;4990319;28;20198;-92
2021/09/26 07:40:14;;;;;;;5.07;2.10;;;14.80;99.90;;;;;;4980214;28;20211;-93
2021/09/26 07:42:46;;;;;;;2.73;1.70;;;14.80;99.90;;;;;;4980240;28;20286;-93
2021/09/26 07:45:18;;;;;;;5.07;2.17;;;14.70;99.90;;;;;;4983887;28;20249;-93
2021/09/26 07:47:49;;;;;;;4.00;1.93;;;14.70;99.90;;;;;;4980875;28;20258;-93
2021/09/26 07:50:25;;;;;;;4.90;2.03;;;14.60;99.90;;;;;;4982357;28;20225;-93
2021/09/26 07:52:58;;;;;;;3.13;1.90;;;14.60;99.90;;;;;;4993133;28;20195;-93
2021/09/26 07:55:29;;;;;;;3.30;2.30;;;14.50;99.90;;;;;;4996929;28;20201;-92
2021/09/26 07:58:01;;;;;;;3.40;2.00;;;14.50;99.90;;;;;;4989197;28;20251;-94
2021/09/26 08:00:32;;;;;;;2.80;2.00;;;14.40;99.90;;;;;;4982858;28;20226;-93
2021/09/26 08:03:12;;;;;;;3.90;2.10;;;14.40;99.90;;;;;;4979672;28;20191;-92
2021/09/26 08:05:48;;;;;;;5.73;2.17;;;14.30;99.90;;;;;;4995673;28;20207;-92
2021/09/26 08:08:22;;;;;;;3.60;2.33;;;14.30;99.90;;;;;;4986552;28;20262;-93
2021/09/26 08:10:54;;;;;;;4.23;2.13;;;14.30;99.90;;;;;;4970656;28;20260;-93
2021/09/26 08:13:26;;;;;;;3.33;2.07;;;14.30;99.90;;;;;;4976882;28;20206;-93
2021/09/26 08:15:57;;;;;;;4.33;1.87;;;14.20;99.90;;;;;;4970361;28;20215;-93
2021/09/26 08:18:29;;;;;;;5.03;2.40;;;14.30;99.90;;;;;;4981239;28;20227;-93
2021/09/26 08:21:03;;;;;;;4.53;2.43;;;14.20;99.90;;;;;;4983790;28;20246;-93
2021/09/26 08:23:35;;;;;;;8.43;2.43;;;14.10;99.90;;;;;;4965888;28;20208;-93
2021/09/26 08:26:07;;;;;;;6.40;2.03;;;14.00;99.90;;;;;;4985907;28;20194;-92
2021/09/26 08:28:39;;;;;;;5.37;2.00;;;14.00;99.90;;;;;;4993915;28;20227;-92
2021/09/26 08:31:11;;;;;;;5.90;1.97;;;14.00;99.90;;;;;;4993955;28;20207;-93
2021/09/26 08:33:45;;;;;;;4.80;1.90;;;13.80;99.90;;;;;;4994607;28;20203;-93
2021/09/26 08:36:18;;;;;;;3.33;1.90;;;13.80;99.90;;;;;;4995065;28;20206;-93
2021/09/26 08:41:45;;;;;;;5.50;2.20;;;13.80;99.90;;;;;;4981142;28;20290;-93
2021/09/26 08:44:18;;;;;;;5.00;2.60;;;13.80;99.90;;;;;;4980076;28;20733;-94
2021/09/26 08:46:50;;;;;;;5.50;2.47;;;13.70;99.90;;;;;;4981977;28;20685;-93
2021/09/26 08:49:22;;;;;;;5.53;2.53;;;13.70;99.90;;;;;;4981855;28;20225;-93
2021/09/26 08:51:57;;;;;;;6.80;2.20;;;13.70;99.90;;;;;;4981698;28;20578;-92
2021/09/26 08:54:30;;;;;;;6.70;2.90;;;13.70;99.90;;;;;;4981163;28;20654;-91
2021/09/26 08:57:01;;;;;;;4.40;2.50;;;13.70;99.90;;;;;;4981511;28;20218;-92
2021/09/26 08:59:34;;;;;;;6.30;2.93;;;13.70;99.90;;;;;;4981107;28;20227;-93
2021/09/26 09:02:06;;;;;;;4.27;2.43;;;13.70;99.90;;;;;;4981679;28;20263;-93
2021/09/26 09:04:38;;;;;;;6.20;2.90;;;13.70;99.90;;;;;;4979435;28;20242;-92
2021/09/26 09:07:13;;;;;;;6.77;2.87;;;13.60;99.90;;;;;;4982071;28;20215;-92
2021/09/26 09:09:53;;;;;;;5.83;2.63;;;13.60;99.90;;;;;;4972846;28;20202;-91
2021/09/26 09:12:28;;;;;;;5.30;2.67;;;13.50;99.90;;;;;;4981570;28;20206;-91
2021/09/26 09:15:02;;;;;;;7.70;2.90;;;13.50;99.90;;;;;;4980854;28;20210;-91
2021/09/26 09:17:35;;;;;;;7.50;2.90;;;13.40;99.90;;;;;;4979938;28;20239;-91
2021/09/26 09:20:24;;;;;;;5.67;2.80;;;13.30;99.90;;;;;;4979993;28;20565;-91
2021/09/26 09:23:09;;;;;;;7.53;2.67;;;13.20;99.90;;;;;;4986213;28;20576;-91
2021/09/26 09:25:43;;;;;;;6.00;2.57;;;13.20;99.90;;;;;;4981466;28;20338;-91
2021/09/26 09:28:18;;;;;;;4.57;2.60;;;13.20;99.90;;;;;;4982337;28;20251;-93
2021/09/26 09:30:51;;;;;;;7.00;2.60;;;13.20;99.90;;;;;;4982190;28;20226;-93
2021/09/26 09:33:24;;;;;;;4.10;2.47;;;13.20;99.90;;;;;;4982379;28;20234;-93
2021/09/26 09:35:57;;;;;;;5.20;2.43;;;13.10;99.90;;;;;;4981139;28;20206;-93
2021/09/26 09:38:39;;;;;;;5.53;2.70;;;13.10;99.90;;;;;;4982403;28;20199;-92
2021/09/26 09:41:12;;;;;;;7.67;3.10;;;13.10;99.90;;;;;;4982248;28;20234;-91
2021/09/26 09:43:52;;;;;;;6.20;3.30;;;13.10;99.90;;;;;;4981821;28;20203;-91
2021/09/26 09:46:32;;;;;;;7.13;2.90;;;13.00;99.90;;;;;;4983014;28;20242;-93
2021/09/26 09:49:17;;;;;;;5.63;3.00;;;13.10;99.90;;;;;;4982603;28;20210;-91
2021/09/26 09:51:52;;;;;;;8.37;4.00;;;13.00;99.90;;;;;;4982422;28;20218;-92
2021/09/26 09:54:36;;;;;;;4.90;2.97;;;13.00;99.90;;;;;;4969818;28;20220;-91
2021/09/26 09:57:15;;;;;;;7.13;3.47;;;13.00;99.90;;;;;;4967143;28;20215;-92
2021/09/26 09:59:49;;;;;;;9.00;3.30;;;13.00;99.90;;;;;;4965214;28;20203;-92
2021/09/26 10:02:21;;;;;;;5.50;3.13;;;12.90;99.90;;;;;;4964269;28;20238;-91
2021/09/26 10:04:52;;;;;;;6.20;3.70;;;13.00;99.90;;;;;;4959264;29;20327;-92
2021/09/26 10:07:26;;;;;;;5.53;3.70;;;13.00;99.90;;;;;;4961386;28;20307;-91
2021/09/26 10:09:59;;;;;;;6.60;3.93;;;12.90;99.90;;;;;;4975878;28;20188;-91
2021/09/26 10:12:33;;;;;;;6.83;3.53;;;12.90;99.90;;;;;;4993104;28;20305;-91
2021/09/26 10:15:07;;;;;;;6.87;3.60;;;12.90;99.90;;;;;;4993043;28;20209;-92
2021/09/26 10:17:38;;;;;;;5.13;3.53;;;12.90;99.90;;;;;;4982382;28;20254;-92
2021/09/26 10:20:12;;;;;;;5.97;4.00;;;12.90;99.90;;;;;;4977793;28;20670;-91
2021/09/26 10:22:44;;;;;;;7.80;3.90;;;12.90;99.90;;;;;;4980589;28;20218;-92
2021/09/26 10:25:17;;;;;;;8.10;4.23;;;12.90;99.90;;;;;;4980125;28;20234;-91
2021/09/26 10:27:49;;;;;;;7.77;3.77;;;12.90;99.90;;;;;;4981195;28;20210;-91
2021/09/26 10:30:21;;;;;;;7.40;4.17;;;12.90;99.90;;;;;;4978648;28;20338;-92
2021/09/26 10:32:54;;;;;;;5.27;3.87;;;12.90;99.90;;;;;;4981260;28;20219;-91
2021/09/26 10:35:26;;;;;;;8.73;4.67;;;12.90;99.90;;;;;;4984599;28;20222;-91
2021/09/26 10:37:57;;;;;;;6.37;3.63;;;13.00;99.90;;;;;;4992935;28;20202;-90
2021/09/26 10:40:31;;;;;;;8.27;4.50;;;12.90;99.90;;;;;;4986546;28;20223;-91
2021/09/26 10:43:18;;;;;;;6.40;4.77;;;13.00;99.90;;;;;;4986197;28;20235;-91
2021/09/26 10:45:50;;;;;;;5.23;4.10;;;13.00;99.90;;;;;;4982513;28;20670;-91
2021/09/26 10:48:22;;;;;;;7.37;4.67;;;12.90;99.90;;;;;;4982006;28;20215;-92
2021/09/26 10:50:53;;;;;;;7.10;4.13;;;12.90;99.90;;;;;;4982630;28;20226;-92
2021/09/26 10:53:24;;;;;;;5.37;3.87;;;12.90;99.90;;;;;;4979640;28;20245;-91
2021/09/26 10:55:58;;;;;;;8.23;4.10;;;12.90;99.90;;;;;;4978843;28;20701;-92
2021/09/26 10:58:29;;;;;;;6.70;4.03;;;12.90;99.90;;;;;;4977470;28;20618;-93
2021/09/26 11:01:03;;;;;;;6.07;3.73;;;12.90;99.90;;;;;;4978726;28;20222;-91
2021/09/26 11:03:39;;;;;;;6.97;4.10;;;12.90;99.90;;;;;;4978385;28;20207;-91
2021/09/26 11:06:29;;;;;;;8.07;4.17;;;12.90;99.90;;;;;;4977668;28;20250;-91
2021/09/26 11:09:01;;;;;;;8.70;4.20;;;12.90;99.90;;;;;;4978940;28;20263;-90
2021/09/26 11:11:46;;;;;;;5.63;4.03;;;12.90;99.90;;;;;;4979260;28;20287;-91
2021/09/26 11:14:18;;;;;;;8.53;4.20;;;12.90;99.90;;;;;;4977029;28;20211;-90
2021/09/26 11:16:55;;;;;;;9.47;4.33;;;12.80;99.90;;;;;;4976933;28;20270;-90
2021/09/26 11:19:27;;;;;;;8.03;3.97;;;12.80;99.90;;;;;;4978482;28;20238;-90
2021/09/26 11:22:05;;;;;;;7.37;3.93;;;12.80;99.90;;;;;;4976974;28;20203;-91
2021/09/26 11:24:58;;;;;;;7.37;4.33;;;12.80;99.90;;;;;;4994693;23;20308;-90
2021/09/26 11:27:42;;;;;;;5.57;4.10;;;12.80;99.90;;;;;;4978165;28;20286;-91
2021/09/26 11:30:30;;;;;;;5.40;3.90;;;12.80;99.90;;;;;;4977733;28;20209;-91
2021/09/26 11:33:05;;;;;;;7.77;3.70;;;12.80;99.90;;;;;;4959263;28;20283;-91
2021/09/26 11:35:41;;;;;;;8.00;4.00;;;12.80;99.90;;;;;;4958095;29;20296;-91
2021/09/26 11:38:19;;;;;;;9.33;4.20;;;12.80;99.90;;;;;;4974213;28;20233;-91
2021/09/26 11:41:06;;;;;;;7.50;4.37;;;12.80;99.90;;;;;;4979484;28;20214;-92
2021/09/26 11:44:02;;;;;;;5.57;3.60;;;12.90;99.90;;;;;;4978580;28;20243;-92
2021/09/26 11:46:33;;;;;;;6.23;3.77;;;12.90;99.90;;;;;;4978985;28;20277;-91
2021/09/26 11:49:07;;;;;;;7.80;4.13;;;12.90;99.90;;;;;;4979062;28;20222;-92
2021/09/26 11:51:39;;;;;;;7.37;3.63;;;12.90;99.90;;;;;;4977980;28;20238;-91
2021/09/26 11:54:11;;;;;;;7.60;3.87;;;12.90;99.90;;;;;;4976080;28;20230;-91
2021/09/26 11:56:44;;;;;;;8.27;3.47;;;12.90;99.90;;;;;;4961576;28;20219;-91
2021/09/26 11:59:20;;;;;;;8.93;3.90;;;12.90;99.90;;;;;;4960390;28;20215;-91
2021/09/26 12:01:53;;;;;;;6.47;3.90;;;12.90;99.90;;;;;;4959531;28;20199;-92
2021/09/26 12:04:26;;;;;;;7.30;4.30;;;12.80;99.90;;;;;;4958381;28;20258;-93
2021/09/26 12:09:47;;;;;;;8.10;4.07;;;12.80;99.90;;;;;;5102070;23;20246;-91
2021/09/26 12:12:21;;;;;;;8.77;4.07;;;12.80;99.90;;;;;;4980344;28;20293;-91
2021/09/26 12:15:03;;;;;;;6.40;4.33;;;12.80;99.90;;;;;;4977999;28;20213;-91
2021/09/26 12:17:36;;;;;;;5.97;4.00;;;12.80;99.90;;;;;;4971713;28;20266;-91
2021/09/26 12:20:10;;;;;;;5.37;4.00;;;12.80;99.90;;;;;;4959468;28;20220;-92
2021/09/26 12:22:43;;;;;;;8.50;4.30;;;12.80;99.90;;;;;;4971073;28;20218;-91
2021/09/26 12:25:27;;;;;;;8.90;4.47;;;12.70;99.90;;;;;;4985514;28;20237;-92
2021/09/26 12:28:03;;;;;;;6.97;4.50;;;12.70;99.90;;;;;;4996008;28;20198;-90
2021/09/26 12:30:51;;;;;;;6.63;4.10;;;12.80;99.90;;;;;;4994974;28;20205;-92
2021/09/26 12:33:25;;;;;;;7.37;4.20;;;12.70;99.90;;;;;;4969489;28;20223;-91
2021/09/26 12:35:59;;;;;;;6.57;4.20;;;12.70;99.90;;;;;;4978491;28;20250;-92
2021/09/26 12:38:34;;;;;;;6.20;4.70;;;12.70;99.90;;;;;;4977851;28;20245;-91
2021/09/26 12:41:10;;;;;;;7.30;4.20;;;12.70;99.90;;;;;;4978353;28;20210;-92
2021/09/26 12:43:48;;;;;;;7.23;4.20;;;12.70;99.90;;;;;;4958433;28;20211;-91
2021/09/26 12:46:23;;;;;;;11.67;4.40;;;12.70;99.90;;;;;;4957685;28;20235;-92
2021/09/26 12:48:55;;;;;;;8.70;4.00;;;12.70;99.90;;;;;;4958202;28;20240;-91
2021/09/26 12:51:32;;;;;;;7.80;4.37;;;12.60;99.90;;;;;;4968135;28;20249;-91
2021/09/26 12:54:07;;;;;;;6.53;3.90;;;12.60;99.90;;;;;;4958690;28;20671;-94
2021/09/26 12:56:44;;;;;;;6.37;3.77;;;12.60;99.90;;;;;;4958930;28;20216;-91
2021/09/26 12:59:25;;;;;;;9.23;4.30;;;12.60;99.90;;;;;;4974295;28;20247;-91
2021/09/26 13:02:06;;;;;;;7.00;3.93;;;12.60;99.90;;;;;;4982409;28;20222;-91
2021/09/26 13:04:38;;;;;;;10.30;4.00;;;12.60;99.90;;;;;;4977848;28;20218;-91
2021/09/26 13:07:10;;;;;;;10.07;4.10;;;12.60;99.90;;;;;;4981887;28;20227;-91
2021/09/26 13:09:44;;;;;;;8.70;4.13;;;12.60;99.90;;;;;;4975208;28;20220;-92
2021/09/26 13:12:28;;;;;;;10.63;4.90;;;12.50;99.90;;;;;;4973332;28;20259;-91
2021/09/26 13:15:10;;;;;;;9.27;3.93;;;12.50;99.90;;;;;;4980333;28;20223;-91
2021/09/26 13:17:44;;;;;;;7.03;4.07;;;12.50;99.90;;;;;;4971616;28;20226;-91
2021/09/26 13:20:27;;;;;;;8.10;4.40;;;12.50;99.90;;;;;;4963112;28;20216;-91
2021/09/26 13:23:24;;;;;;;9.30;4.50;;;12.50;99.90;;;;;;4979978;28;20203;-91
2021/09/26 13:25:57;;;;;;;7.10;3.70;;;12.60;99.90;;;;;;4982873;28;20286;-91
2021/09/26 13:28:32;;;;;;;8.17;4.03;;;12.60;99.90;;;;;;4984835;28;20227;-91
2021/09/26 13:31:15;;;;;;;6.83;3.73;;;12.60;99.90;;;;;;4998112;28;20193;-92
2021/09/26 13:33:47;;;;;;;9.63;4.00;;;12.70;99.90;;;;;;4998972;28;20252;-92
2021/09/26 13:36:33;;;;;;;6.33;3.60;;;12.70;99.90;;;;;;4998282;28;20210;-91
2021/09/26 13:39:09;;;;;;;7.50;3.63;;;12.80;99.90;;;;;;5000421;28;20197;-92
2021/09/26 13:41:43;;;;;;;7.97;3.90;;;12.80;99.90;;;;;;5000093;28;20207;-89
2021/09/26 13:44:22;;;;;;;6.00;3.37;;;12.80;99.90;;;;;;4998080;28;20198;-92
2021/09/26 13:46:55;;;;;;;8.10;3.87;;;12.80;99.90;;;;;;4982941;28;20294;-91
2021/09/26 13:49:26;;;;;;;8.93;4.10;;;12.80;99.90;;;;;;4981336;28;20579;-92
2021/09/26 13:51:57;;;;;;;7.03;3.80;;;12.80;99.90;;;;;;4983233;28;20658;-92
2021/09/26 13:54:31;;;;;;;9.07;3.53;;;12.80;99.90;;;;;;4980194;28;20211;-92
2021/09/26 13:57:04;;;;;;;7.43;4.00;;;12.80;99.90;;;;;;4979162;28;20229;-91
2021/09/26 13:59:38;;;;;;;9.73;4.30;;;12.80;99.90;;;;;;4977458;28;20203;-92
2021/09/26 14:02:11;;;;;;;5.00;3.50;;;12.90;99.90;;;;;;4976094;28;20254;-90
2021/09/26 14:04:42;;;;;;;7.07;3.83;;;12.90;99.90;;;;;;4972377;28;20426;-89
2021/09/26 14:07:14;;;;;;;8.97;4.00;;;12.90;99.90;;;;;;4980158;28;20226;-91
2021/09/26 14:09:45;;;;;;;4.47;3.57;;;13.00;99.90;;;;;;4986354;28;20510;-91
2021/09/26 14:12:18;;;;;;;6.63;3.87;;;13.00;99.90;;;;;;4987493;28;20214;-90
2021/09/26 14:14:52;;;;;;;8.90;3.97;;;13.10;99.90;;;;;;4969915;28;20607;-91
2021/09/26 14:17:24;;;;;;;5.53;3.90;;;13.10;99.90;;;;;;4965320;28;20281;-91
2021/09/26 14:19:55;;;;;;;6.70;3.70;;;13.10;99.90;;;;;;4979599;28;20215;-90
2021/09/26 14:22:26;;;;;;;10.60;4.07;;;13.20;99.90;;;;;;4979779;28;20612;-91
2021/09/26 14:24:57;;;;;;;8.70;3.83;;;13.20;99.90;;;;;;4976721;28;20195;-91